Terminal Aerodrome Forecast
Issued by NWS Jackson, MS

Home | Current Version | Previous Version | Text Only | Print | Product List | Glossary On
Versions: 1 2 3 4 5 6 7 8 9 10 11 12 13 14
430
FTUS44 KJAN 212340
TAFGLH
TAF
KGLH 212340Z 2200/2224 13008KT P6SM SCT025 BKN090
     FM220200 17010G20KT 3SM TSRA BKN035CB
     FM220400 21009KT 6SM SHRA VCTS SCT025 BKN050CB
     FM220600 20007KT P6SM -RA OVC015
     FM221400 20014KT P6SM -SHRA OVC050
     FM222000 25017G24KT P6SM -RA OVC025=

USA.gov is the U.S. government's official web portal to all federal, state and local government web resources and services.